< < Back
Terminal Aerodrome Forecast


Current Version              Previous Versions:   1  2  3  4  5  6  7  8  9  

Terminal Aerodrome Forecast

337
FTUS42 KFFC 300500 RRA
TAFPDK
TAF
KPDK 300550Z 3006/3106 00000KT P6SM BKN080
     FM301600 17006KT P6SM VCSH SCT035 BKN050 PROB30 3018/3024 6SM
      TSRA BKN045CB
     FM310200 00000KT P6SM BKN035=



Latest METAR

736
SAUS70 KWBC 301200 RRN
MTRPDK
METAR KPDK 301153Z 00000KT 7SM CLR 23/18 A3016 RMK AO2 SLP195 T02280178
10244 20200 53011


USA.gov is the U.S. government's official web portal to all federal, state and local government web resources and services.